sensor_id;sensor_type;location;lat;lon;timestamp;temperature;humidity
57857;DHT22;43683;48.650;9.290;2023-08-31T00:01:08;13.10;92.30
57857;DHT22;43683;48.650;9.290;2023-08-31T00:03:35;13.10;92.30
57857;DHT22;43683;48.650;9.290;2023-08-31T00:06:04;13.10;92.30
57857;DHT22;43683;48.650;9.290;2023-08-31T00:08:30;13.10;92.40
57857;DHT22;43683;48.650;9.290;2023-08-31T00:10:57;13.10;92.40
57857;DHT22;43683;48.650;9.290;2023-08-31T00:13:22;13.10;92.40
57857;DHT22;43683;48.650;9.290;2023-08-31T00:15:48;13.10;92.50
57857;DHT22;43683;48.650;9.290;2023-08-31T00:18:14;13.10;92.50
57857;DHT22;43683;48.650;9.290;2023-08-31T00:20:41;13.10;92.50
57857;DHT22;43683;48.650;9.290;2023-08-31T00:23:07;13.10;92.50
57857;DHT22;43683;48.650;9.290;2023-08-31T00:25:32;13.10;92.60
57857;DHT22;43683;48.650;9.290;2023-08-31T00:27:58;13.10;92.60
57857;DHT22;43683;48.650;9.290;2023-08-31T00:30:30;13.00;92.60
57857;DHT22;43683;48.650;9.290;2023-08-31T00:32:56;13.00;92.60
57857;DHT22;43683;48.650;9.290;2023-08-31T00:35:26;13.00;92.70
57857;DHT22;43683;48.650;9.290;2023-08-31T00:37:52;13.00;92.80
57857;DHT22;43683;48.650;9.290;2023-08-31T00:40:22;13.00;92.70
57857;DHT22;43683;48.650;9.290;2023-08-31T00:42:48;12.90;92.70
57857;DHT22;43683;48.650;9.290;2023-08-31T00:45:13;12.90;92.80
57857;DHT22;43683;48.650;9.290;2023-08-31T00:47:39;12.90;92.70
57857;DHT22;43683;48.650;9.290;2023-08-31T00:50:06;12.90;92.70
57857;DHT22;43683;48.650;9.290;2023-08-31T00:52:33;12.90;92.80
57857;DHT22;43683;48.650;9.290;2023-08-31T00:55:00;12.90;92.80
57857;DHT22;43683;48.650;9.290;2023-08-31T00:57:27;12.80;92.90
57857;DHT22;43683;48.650;9.290;2023-08-31T00:59:53;12.90;92.90
57857;DHT22;43683;48.650;9.290;2023-08-31T01:02:33;12.90;92.90
57857;DHT22;43683;48.650;9.290;2023-08-31T01:05:13;12.90;93.00
57857;DHT22;43683;48.650;9.290;2023-08-31T01:08:28;12.80;93.00
57857;DHT22;43683;48.650;9.290;2023-08-31T01:11:11;12.80;93.10
57857;DHT22;43683;48.650;9.290;2023-08-31T01:13:41;12.60;93.20
57857;DHT22;43683;48.650;9.290;2023-08-31T01:16:08;12.50;93.40
57857;DHT22;43683;48.650;9.290;2023-08-31T01:18:34;12.40;93.60
57857;DHT22;43683;48.650;9.290;2023-08-31T01:21:24;12.20;93.90
57857;DHT22;43683;48.650;9.290;2023-08-31T01:23:53;12.00;94.10
57857;DHT22;43683;48.650;9.290;2023-08-31T01:26:19;12.00;94.00
57857;DHT22;43683;48.650;9.290;2023-08-31T01:28:46;11.90;93.90
57857;DHT22;43683;48.650;9.290;2023-08-31T01:31:12;11.80;94.00
57857;DHT22;43683;48.650;9.290;2023-08-31T01:33:37;11.70;94.10
57857;DHT22;43683;48.650;9.290;2023-08-31T01:36:06;11.70;94.20
57857;DHT22;43683;48.650;9.290;2023-08-31T01:38:35;11.70;94.20
57857;DHT22;43683;48.650;9.290;2023-08-31T01:41:07;11.70;94.20
57857;DHT22;43683;48.650;9.290;2023-08-31T01:43:35;11.70;94.20
57857;DHT22;43683;48.650;9.290;2023-08-31T01:46:01;11.70;94.20
57857;DHT22;43683;48.650;9.290;2023-08-31T01:48:28;11.60;94.20
57857;DHT22;43683;48.650;9.290;2023-08-31T01:50:53;11.60;94.20
57857;DHT22;43683;48.650;9.290;2023-08-31T01:53:19;11.60;94.20
57857;DHT22;43683;48.650;9.290;2023-08-31T01:55:44;11.60;94.20
57857;DHT22;43683;48.650;9.290;2023-08-31T01:58:10;11.60;94.20
57857;DHT22;43683;48.650;9.290;2023-08-31T02:00:35;11.70;94.20
57857;DHT22;43683;48.650;9.290;2023-08-31T02:03:03;11.70;94.00
57857;DHT22;43683;48.650;9.290;2023-08-31T02:05:29;11.80;94.00
57857;DHT22;43683;48.650;9.290;2023-08-31T02:07:54;11.80;94.30
57857;DHT22;43683;48.650;9.290;2023-08-31T02:10:20;11.70;94.00
57857;DHT22;43683;48.650;9.290;2023-08-31T02:12:45;11.70;94.20
57857;DHT22;43683;48.650;9.290;2023-08-31T02:15:11;11.60;94.20
57857;DHT22;43683;48.650;9.290;2023-08-31T02:17:37;11.60;94.30
57857;DHT22;43683;48.650;9.290;2023-08-31T02:20:03;11.60;94.40
57857;DHT22;43683;48.650;9.290;2023-08-31T02:22:31;11.60;94.50
57857;DHT22;43683;48.650;9.290;2023-08-31T02:24:58;11.70;94.40
57857;DHT22;43683;48.650;9.290;2023-08-31T02:27:24;11.70;94.20
57857;DHT22;43683;48.650;9.290;2023-08-31T02:29:49;11.70;94.20
57857;DHT22;43683;48.650;9.290;2023-08-31T02:32:15;11.60;94.40
57857;DHT22;43683;48.650;9.290;2023-08-31T02:34:40;11.70;94.50
57857;DHT22;43683;48.650;9.290;2023-08-31T02:37:06;11.70;94.50
57857;DHT22;43683;48.650;9.290;2023-08-31T02:39:31;11.80;94.40
57857;DHT22;43683;48.650;9.290;2023-08-31T02:41:57;11.90;94.20
57857;DHT22;43683;48.650;9.290;2023-08-31T02:44:23;12.00;94.20
57857;DHT22;43683;48.650;9.290;2023-08-31T02:46:48;12.00;94.10
57857;DHT22;43683;48.650;9.290;2023-08-31T02:49:14;12.00;94.20
57857;DHT22;43683;48.650;9.290;2023-08-31T02:51:39;11.90;94.30
57857;DHT22;43683;48.650;9.290;2023-08-31T02:54:05;11.80;94.40
57857;DHT22;43683;48.650;9.290;2023-08-31T02:56:30;11.70;94.60
57857;DHT22;43683;48.650;9.290;2023-08-31T02:58:56;11.60;94.80
57857;DHT22;43683;48.650;9.290;2023-08-31T03:01:21;11.60;94.90
57857;DHT22;43683;48.650;9.290;2023-08-31T03:03:48;11.60;94.90
57857;DHT22;43683;48.650;9.290;2023-08-31T03:06:14;11.60;94.90
57857;DHT22;43683;48.650;9.290;2023-08-31T03:08:40;11.50;94.90
57857;DHT22;43683;48.650;9.290;2023-08-31T03:11:06;11.50;95.00
57857;DHT22;43683;48.650;9.290;2023-08-31T03:13:32;11.40;95.10
57857;DHT22;43683;48.650;9.290;2023-08-31T03:15:58;11.30;95.20
57857;DHT22;43683;48.650;9.290;2023-08-31T03:18:24;11.20;95.30
57857;DHT22;43683;48.650;9.290;2023-08-31T03:20:50;11.30;95.30
57857;DHT22;43683;48.650;9.290;2023-08-31T03:23:15;11.30;95.30
57857;DHT22;43683;48.650;9.290;2023-08-31T03:25:41;11.40;95.20
57857;DHT22;43683;48.650;9.290;2023-08-31T03:28:07;11.50;95.00
57857;DHT22;43683;48.650;9.290;2023-08-31T03:30:33;11.60;94.90
57857;DHT22;43683;48.650;9.290;2023-08-31T03:32:59;11.80;94.70
57857;DHT22;43683;48.650;9.290;2023-08-31T03:35:24;11.80;94.60
57857;DHT22;43683;48.650;9.290;2023-08-31T03:37:55;11.90;94.50
57857;DHT22;43683;48.650;9.290;2023-08-31T03:40:21;11.90;94.50
57857;DHT22;43683;48.650;9.290;2023-08-31T03:42:48;12.00;94.80
57857;DHT22;43683;48.650;9.290;2023-08-31T03:45:14;12.00;94.50
57857;DHT22;43683;48.650;9.290;2023-08-31T03:47:40;12.00;94.60
57857;DHT22;43683;48.650;9.290;2023-08-31T03:50:06;12.00;94.60
57857;DHT22;43683;48.650;9.290;2023-08-31T03:52:32;12.10;94.60
57857;DHT22;43683;48.650;9.290;2023-08-31T03:54:57;12.10;94.60
57857;DHT22;43683;48.650;9.290;2023-08-31T03:57:23;12.10;94.60
57857;DHT22;43683;48.650;9.290;2023-08-31T03:59:48;12.20;94.60
57857;DHT22;43683;48.650;9.290;2023-08-31T04:02:14;12.20;94.60
57857;DHT22;43683;48.650;9.290;2023-08-31T04:04:40;12.20;94.50
57857;DHT22;43683;48.650;9.290;2023-08-31T04:07:05;12.30;94.50
57857;DHT22;43683;48.650;9.290;2023-08-31T04:09:32;12.30;94.50
57857;DHT22;43683;48.650;9.290;2023-08-31T04:11:57;12.30;94.50
57857;DHT22;43683;48.650;9.290;2023-08-31T04:14:23;12.30;94.50
57857;DHT22;43683;48.650;9.290;2023-08-31T04:16:48;12.40;94.50
57857;DHT22;43683;48.650;9.290;2023-08-31T04:19:16;12.40;94.50
57857;DHT22;43683;48.650;9.290;2023-08-31T04:21:42;12.40;94.50
57857;DHT22;43683;48.650;9.290;2023-08-31T04:24:08;12.40;94.50
57857;DHT22;43683;48.650;9.290;2023-08-31T04:26:34;12.40;94.60
57857;DHT22;43683;48.650;9.290;2023-08-31T04:28:59;12.30;94.60
57857;DHT22;43683;48.650;9.290;2023-08-31T04:31:25;12.30;94.60
57857;DHT22;43683;48.650;9.290;2023-08-31T04:33:50;12.30;94.70
57857;DHT22;43683;48.650;9.290;2023-08-31T04:36:20;12.20;94.80
57857;DHT22;43683;48.650;9.290;2023-08-31T04:38:45;12.20;94.90
57857;DHT22;43683;48.650;9.290;2023-08-31T04:41:11;12.20;94.90
57857;DHT22;43683;48.650;9.290;2023-08-31T04:43:36;12.20;94.90
57857;DHT22;43683;48.650;9.290;2023-08-31T04:46:02;12.20;94.90
57857;DHT22;43683;48.650;9.290;2023-08-31T04:48:29;12.20;94.90
57857;DHT22;43683;48.650;9.290;2023-08-31T04:50:57;12.20;94.80
57857;DHT22;43683;48.650;9.290;2023-08-31T04:53:23;12.10;94.80
57857;DHT22;43683;48.650;9.290;2023-08-31T04:55:48;12.00;94.90
57857;DHT22;43683;48.650;9.290;2023-08-31T04:58:14;11.90;95.10
57857;DHT22;43683;48.650;9.290;2023-08-31T05:00:39;11.90;95.20
57857;DHT22;43683;48.650;9.290;2023-08-31T05:03:05;12.00;95.10
57857;DHT22;43683;48.650;9.290;2023-08-31T05:05:31;12.00;95.00
57857;DHT22;43683;48.650;9.290;2023-08-31T05:07:56;12.00;94.80
57857;DHT22;43683;48.650;9.290;2023-08-31T05:10:22;11.90;94.90
57857;DHT22;43683;48.650;9.290;2023-08-31T05:12:48;11.90;95.00
57857;DHT22;43683;48.650;9.290;2023-08-31T05:15:13;12.00;95.00
57857;DHT22;43683;48.650;9.290;2023-08-31T05:17:39;12.10;94.90
57857;DHT22;43683;48.650;9.290;2023-08-31T05:20:05;12.20;94.70
57857;DHT22;43683;48.650;9.290;2023-08-31T05:22:33;12.30;94.50
57857;DHT22;43683;48.650;9.290;2023-08-31T05:25:00;12.40;94.30
57857;DHT22;43683;48.650;9.290;2023-08-31T05:27:26;12.50;94.20
57857;DHT22;43683;48.650;9.290;2023-08-31T05:29:51;12.60;94.20
57857;DHT22;43683;48.650;9.290;2023-08-31T05:32:17;12.60;94.10
57857;DHT22;43683;48.650;9.290;2023-08-31T05:34:42;12.70;94.10
57857;DHT22;43683;48.650;9.290;2023-08-31T05:37:08;12.70;94.10
57857;DHT22;43683;48.650;9.290;2023-08-31T05:39:34;12.80;94.10
57857;DHT22;43683;48.650;9.290;2023-08-31T05:41:59;12.90;94.40
57857;DHT22;43683;48.650;9.290;2023-08-31T05:44:25;12.90;94.00
57857;DHT22;43683;48.650;9.290;2023-08-31T05:46:50;12.90;94.00
57857;DHT22;43683;48.650;9.290;2023-08-31T05:49:16;13.10;93.90
57857;DHT22;43683;48.650;9.290;2023-08-31T05:51:41;13.20;93.80
57857;DHT22;43683;48.650;9.290;2023-08-31T05:54:07;13.30;93.70
57857;DHT22;43683;48.650;9.290;2023-08-31T05:56:40;13.40;93.50
57857;DHT22;43683;48.650;9.290;2023-08-31T05:59:06;13.60;93.70
57857;DHT22;43683;48.650;9.290;2023-08-31T06:01:32;13.70;93.30
57857;DHT22;43683;48.650;9.290;2023-08-31T06:03:58;13.70;93.30
57857;DHT22;43683;48.650;9.290;2023-08-31T06:06:23;13.60;93.40
57857;DHT22;43683;48.650;9.290;2023-08-31T06:08:49;13.70;93.50
57857;DHT22;43683;48.650;9.290;2023-08-31T06:11:15;13.70;93.40
57857;DHT22;43683;48.650;9.290;2023-08-31T06:13:41;13.80;93.40
57857;DHT22;43683;48.650;9.290;2023-08-31T06:16:06;13.90;93.30
57857;DHT22;43683;48.650;9.290;2023-08-31T06:18:32;14.00;93.20
57857;DHT22;43683;48.650;9.290;2023-08-31T06:20:58;14.10;93.10
57857;DHT22;43683;48.650;9.290;2023-08-31T06:23:23;14.20;92.90
57857;DHT22;43683;48.650;9.290;2023-08-31T06:25:49;14.20;92.90
57857;DHT22;43683;48.650;9.290;2023-08-31T06:28:14;14.30;92.80
57857;DHT22;43683;48.650;9.290;2023-08-31T06:30:41;14.30;92.70
57857;DHT22;43683;48.650;9.290;2023-08-31T06:33:12;14.40;92.70
57857;DHT22;43683;48.650;9.290;2023-08-31T06:35:37;14.40;92.60
57857;DHT22;43683;48.650;9.290;2023-08-31T06:38:03;14.50;92.50
57857;DHT22;43683;48.650;9.290;2023-08-31T06:40:29;14.50;92.60
57857;DHT22;43683;48.650;9.290;2023-08-31T06:42:54;14.50;92.60
57857;DHT22;43683;48.650;9.290;2023-08-31T06:45:20;14.50;92.60
57857;DHT22;43683;48.650;9.290;2023-08-31T06:47:45;14.40;92.60
57857;DHT22;43683;48.650;9.290;2023-08-31T06:50:11;14.50;92.50
57857;DHT22;43683;48.650;9.290;2023-08-31T06:52:36;14.60;92.40
57857;DHT22;43683;48.650;9.290;2023-08-31T06:55:02;14.60;92.40
57857;DHT22;43683;48.650;9.290;2023-08-31T06:57:28;14.70;92.40
57857;DHT22;43683;48.650;9.290;2023-08-31T06:59:54;14.80;92.40
57857;DHT22;43683;48.650;9.290;2023-08-31T07:02:19;14.80;92.30
57857;DHT22;43683;48.650;9.290;2023-08-31T07:04:47;14.80;92.30
57857;DHT22;43683;48.650;9.290;2023-08-31T07:07:14;14.80;92.40
57857;DHT22;43683;48.650;9.290;2023-08-31T07:09:43;14.70;92.30
57857;DHT22;43683;48.650;9.290;2023-08-31T07:12:10;14.60;92.40
57857;DHT22;43683;48.650;9.290;2023-08-31T07:14:36;14.50;92.60
57857;DHT22;43683;48.650;9.290;2023-08-31T07:17:01;14.50;92.80
57857;DHT22;43683;48.650;9.290;2023-08-31T07:19:27;14.30;93.00
57857;DHT22;43683;48.650;9.290;2023-08-31T07:21:53;14.20;93.20
57857;DHT22;43683;48.650;9.290;2023-08-31T07:24:20;14.20;93.40
57857;DHT22;43683;48.650;9.290;2023-08-31T07:26:46;14.30;93.60
57857;DHT22;43683;48.650;9.290;2023-08-31T07:29:12;14.70;94.00
57857;DHT22;43683;48.650;9.290;2023-08-31T07:31:37;15.10;93.70
57857;DHT22;43683;48.650;9.290;2023-08-31T07:34:03;15.40;93.10
57857;DHT22;43683;48.650;9.290;2023-08-31T07:36:29;15.70;92.70
57857;DHT22;43683;48.650;9.290;2023-08-31T07:38:54;15.80;92.30
57857;DHT22;43683;48.650;9.290;2023-08-31T07:41:20;16.00;92.00
57857;DHT22;43683;48.650;9.290;2023-08-31T07:43:45;16.10;91.80
57857;DHT22;43683;48.650;9.290;2023-08-31T07:46:11;16.20;91.60
57857;DHT22;43683;48.650;9.290;2023-08-31T07:48:36;16.20;91.50
57857;DHT22;43683;48.650;9.290;2023-08-31T07:51:02;16.30;91.40
57857;DHT22;43683;48.650;9.290;2023-08-31T07:53:28;16.40;91.40
57857;DHT22;43683;48.650;9.290;2023-08-31T07:55:54;16.60;91.10
57857;DHT22;43683;48.650;9.290;2023-08-31T07:58:21;16.60;90.90
57857;DHT22;43683;48.650;9.290;2023-08-31T08:00:47;16.80;90.80
57857;DHT22;43683;48.650;9.290;2023-08-31T08:03:12;17.00;90.70
57857;DHT22;43683;48.650;9.290;2023-08-31T08:05:39;17.10;90.60
57857;DHT22;43683;48.650;9.290;2023-08-31T08:08:05;17.20;90.50
57857;DHT22;43683;48.650;9.290;2023-08-31T08:10:31;17.30;90.50
57857;DHT22;43683;48.650;9.290;2023-08-31T08:12:56;17.40;90.40
57857;DHT22;43683;48.650;9.290;2023-08-31T08:15:22;17.40;90.40
57857;DHT22;43683;48.650;9.290;2023-08-31T08:17:47;17.60;90.30
57857;DHT22;43683;48.650;9.290;2023-08-31T08:20:13;17.60;90.20
57857;DHT22;43683;48.650;9.290;2023-08-31T08:22:39;17.50;90.10
57857;DHT22;43683;48.650;9.290;2023-08-31T08:25:05;17.50;90.20
57857;DHT22;43683;48.650;9.290;2023-08-31T08:27:31;17.50;90.40
57857;DHT22;43683;48.650;9.290;2023-08-31T08:29:58;17.60;90.30
57857;DHT22;43683;48.650;9.290;2023-08-31T08:32:24;17.90;90.20
57857;DHT22;43683;48.650;9.290;2023-08-31T08:34:50;18.10;89.70
57857;DHT22;43683;48.650;9.290;2023-08-31T08:37:16;18.40;89.00
57857;DHT22;43683;48.650;9.290;2023-08-31T08:39:41;18.60;87.90
57857;DHT22;43683;48.650;9.290;2023-08-31T08:42:07;18.60;87.00
57857;DHT22;43683;48.650;9.290;2023-08-31T08:44:36;18.50;86.60
57857;DHT22;43683;48.650;9.290;2023-08-31T08:47:02;18.50;85.80
57857;DHT22;43683;48.650;9.290;2023-08-31T08:49:32;18.70;85.00
57857;DHT22;43683;48.650;9.290;2023-08-31T08:51:59;18.90;85.20
57857;DHT22;43683;48.650;9.290;2023-08-31T08:54:25;19.40;83.20
57857;DHT22;43683;48.650;9.290;2023-08-31T08:56:50;19.90;80.40
57857;DHT22;43683;48.650;9.290;2023-08-31T08:59:16;19.80;79.00
57857;DHT22;43683;48.650;9.290;2023-08-31T09:01:42;19.60;78.50
57857;DHT22;43683;48.650;9.290;2023-08-31T09:04:09;19.40;78.30
57857;DHT22;43683;48.650;9.290;2023-08-31T09:06:35;19.30;77.60
57857;DHT22;43683;48.650;9.290;2023-08-31T09:09:01;19.10;77.80
57857;DHT22;43683;48.650;9.290;2023-08-31T09:11:26;19.10;77.30
57857;DHT22;43683;48.650;9.290;2023-08-31T09:13:52;19.00;77.10
57857;DHT22;43683;48.650;9.290;2023-08-31T09:16:29;19.00;76.70
57857;DHT22;43683;48.650;9.290;2023-08-31T09:18:58;19.10;75.50
57857;DHT22;43683;48.650;9.290;2023-08-31T09:21:37;19.10;75.10
57857;DHT22;43683;48.650;9.290;2023-08-31T09:24:05;19.40;74.40
57857;DHT22;43683;48.650;9.290;2023-08-31T09:26:55;19.70;74.00
57857;DHT22;43683;48.650;9.290;2023-08-31T09:29:21;19.50;73.40
57857;DHT22;43683;48.650;9.290;2023-08-31T09:31:46;19.50;73.80
57857;DHT22;43683;48.650;9.290;2023-08-31T09:34:17;19.20;73.70
57857;DHT22;43683;48.650;9.290;2023-08-31T09:36:42;19.20;73.60
57857;DHT22;43683;48.650;9.290;2023-08-31T09:39:09;18.90;73.40
57857;DHT22;43683;48.650;9.290;2023-08-31T09:41:35;18.70;73.20
57857;DHT22;43683;48.650;9.290;2023-08-31T09:44:17;18.40;73.20
57857;DHT22;43683;48.650;9.290;2023-08-31T09:46:44;18.40;73.30
57857;DHT22;43683;48.650;9.290;2023-08-31T09:49:15;18.70;73.90
57857;DHT22;43683;48.650;9.290;2023-08-31T09:51:44;19.20;73.70
57857;DHT22;43683;48.650;9.290;2023-08-31T09:54:13;20.10;72.60
57857;DHT22;43683;48.650;9.290;2023-08-31T09:56:41;20.80;70.70
57857;DHT22;43683;48.650;9.290;2023-08-31T09:59:08;21.00;69.50
57857;DHT22;43683;48.650;9.290;2023-08-31T10:01:34;20.70;69.00
57857;DHT22;43683;48.650;9.290;2023-08-31T10:03:59;20.90;68.90
57857;DHT22;43683;48.650;9.290;2023-08-31T10:06:26;21.30;68.20
57857;DHT22;43683;48.650;9.290;2023-08-31T10:08:52;21.20;67.70
57857;DHT22;43683;48.650;9.290;2023-08-31T10:11:18;20.90;67.60
57857;DHT22;43683;48.650;9.290;2023-08-31T10:13:44;20.70;67.30
57857;DHT22;43683;48.650;9.290;2023-08-31T10:16:12;20.60;67.30
57857;DHT22;43683;48.650;9.290;2023-08-31T10:18:38;21.10;66.50
57857;DHT22;43683;48.650;9.290;2023-08-31T10:21:04;21.70;65.10
57857;DHT22;43683;48.650;9.290;2023-08-31T10:23:31;21.70;64.70
57857;DHT22;43683;48.650;9.290;2023-08-31T10:28:26;21.70;63.80
57857;DHT22;43683;48.650;9.290;2023-08-31T10:33:41;22.70;61.90
57857;DHT22;43683;48.650;9.290;2023-08-31T10:36:17;22.40;61.50
57857;DHT22;43683;48.650;9.290;2023-08-31T10:39:06;22.10;61.60
57857;DHT22;43683;48.650;9.290;2023-08-31T10:41:35;22.10;61.70
57857;DHT22;43683;48.650;9.290;2023-08-31T10:44:01;22.10;61.30
57857;DHT22;43683;48.650;9.290;2023-08-31T10:46:33;22.60;60.90
57857;DHT22;43683;48.650;9.290;2023-08-31T10:51:38;23.40;58.20
57857;DHT22;43683;48.650;9.290;2023-08-31T10:54:05;23.80;59.60
57857;DHT22;43683;48.650;9.290;2023-08-31T10:56:30;24.00;58.30
57857;DHT22;43683;48.650;9.290;2023-08-31T10:59:00;23.70;59.40
57857;DHT22;43683;48.650;9.290;2023-08-31T11:02:03;23.40;58.50
57857;DHT22;43683;48.650;9.290;2023-08-31T11:04:30;23.70;57.60
57857;DHT22;43683;48.650;9.290;2023-08-31T11:07:34;24.00;57.40
57857;DHT22;43683;48.650;9.290;2023-08-31T11:10:26;23.80;56.30
57857;DHT22;43683;48.650;9.290;2023-08-31T11:12:55;23.40;56.20
57857;DHT22;43683;48.650;9.290;2023-08-31T11:15:24;22.70;56.90
57857;DHT22;43683;48.650;9.290;2023-08-31T11:17:51;22.50;57.00
57857;DHT22;43683;48.650;9.290;2023-08-31T11:20:19;22.10;57.00
57857;DHT22;43683;48.650;9.290;2023-08-31T11:22:48;21.80;57.20
57857;DHT22;43683;48.650;9.290;2023-08-31T11:25:20;21.60;58.70
57857;DHT22;43683;48.650;9.290;2023-08-31T11:28:00;21.30;58.60
57857;DHT22;43683;48.650;9.290;2023-08-31T11:30:27;21.20;57.70
57857;DHT22;43683;48.650;9.290;2023-08-31T11:32:53;21.40;57.90
57857;DHT22;43683;48.650;9.290;2023-08-31T11:35:20;21.90;57.60
57857;DHT22;43683;48.650;9.290;2023-08-31T11:37:50;22.30;56.50
57857;DHT22;43683;48.650;9.290;2023-08-31T11:40:16;22.10;55.60
57857;DHT22;43683;48.650;9.290;2023-08-31T11:42:42;21.70;56.00
57857;DHT22;43683;48.650;9.290;2023-08-31T11:45:09;21.30;56.50
57857;DHT22;43683;48.650;9.290;2023-08-31T11:47:36;21.30;56.30
57857;DHT22;43683;48.650;9.290;2023-08-31T11:50:02;21.70;55.50
57857;DHT22;43683;48.650;9.290;2023-08-31T11:52:30;22.00;54.80
57857;DHT22;43683;48.650;9.290;2023-08-31T11:54:56;22.00;54.50
57857;DHT22;43683;48.650;9.290;2023-08-31T11:57:25;21.80;54.60
57857;DHT22;43683;48.650;9.290;2023-08-31T11:59:51;21.80;54.10
57857;DHT22;43683;48.650;9.290;2023-08-31T12:02:19;22.00;53.60
57857;DHT22;43683;48.650;9.290;2023-08-31T12:04:45;22.10;53.40
57857;DHT22;43683;48.650;9.290;2023-08-31T12:07:12;22.10;53.40
57857;DHT22;43683;48.650;9.290;2023-08-31T12:09:41;22.80;52.90
57857;DHT22;43683;48.650;9.290;2023-08-31T12:12:10;23.30;52.40
57857;DHT22;43683;48.650;9.290;2023-08-31T12:14:37;23.50;52.20
57857;DHT22;43683;48.650;9.290;2023-08-31T12:17:06;23.60;51.50
57857;DHT22;43683;48.650;9.290;2023-08-31T12:19:32;23.90;51.30
57857;DHT22;43683;48.650;9.290;2023-08-31T12:21:58;24.30;50.80
57857;DHT22;43683;48.650;9.290;2023-08-31T12:24:24;24.40;50.70
57857;DHT22;43683;48.650;9.290;2023-08-31T12:26:50;24.10;50.80
57857;DHT22;43683;48.650;9.290;2023-08-31T12:29:16;24.10;50.90
57857;DHT22;43683;48.650;9.290;2023-08-31T12:31:42;24.00;50.80
57857;DHT22;43683;48.650;9.290;2023-08-31T12:34:09;24.00;50.60
57857;DHT22;43683;48.650;9.290;2023-08-31T12:36:34;24.00;50.80
57857;DHT22;43683;48.650;9.290;2023-08-31T12:39:02;24.10;50.50
57857;DHT22;43683;48.650;9.290;2023-08-31T12:41:31;24.00;50.60
57857;DHT22;43683;48.650;9.290;2023-08-31T12:43:56;24.10;50.20
57857;DHT22;43683;48.650;9.290;2023-08-31T12:46:23;24.10;50.10
57857;DHT22;43683;48.650;9.290;2023-08-31T12:48:49;23.90;50.10
57857;DHT22;43683;48.650;9.290;2023-08-31T12:51:15;23.80;50.30
57857;DHT22;43683;48.650;9.290;2023-08-31T12:53:41;23.40;50.20
57857;DHT22;43683;48.650;9.290;2023-08-31T12:56:07;23.20;50.40
57857;DHT22;43683;48.650;9.290;2023-08-31T12:58:32;23.30;50.40
57857;DHT22;43683;48.650;9.290;2023-08-31T13:00:58;23.70;50.20
57857;DHT22;43683;48.650;9.290;2023-08-31T13:03:25;23.90;49.80
57857;DHT22;43683;48.650;9.290;2023-08-31T13:05:50;24.00;49.90
57857;DHT22;43683;48.650;9.290;2023-08-31T13:08:16;24.20;49.70
57857;DHT22;43683;48.650;9.290;2023-08-31T13:10:42;24.50;49.40
57857;DHT22;43683;48.650;9.290;2023-08-31T13:13:08;24.60;49.00
57857;DHT22;43683;48.650;9.290;2023-08-31T13:15:33;24.50;49.00
57857;DHT22;43683;48.650;9.290;2023-08-31T13:17:59;24.00;49.00
57857;DHT22;43683;48.650;9.290;2023-08-31T13:20:25;24.10;48.70
57857;DHT22;43683;48.650;9.290;2023-08-31T13:22:51;24.20;48.40
57857;DHT22;43683;48.650;9.290;2023-08-31T13:25:17;24.20;48.60
57857;DHT22;43683;48.650;9.290;2023-08-31T13:27:43;24.50;48.10
57857;DHT22;43683;48.650;9.290;2023-08-31T13:30:10;24.80;47.70
57857;DHT22;43683;48.650;9.290;2023-08-31T13:32:37;24.50;47.50
57857;DHT22;43683;48.650;9.290;2023-08-31T13:35:03;24.40;47.80
57857;DHT22;43683;48.650;9.290;2023-08-31T13:37:33;24.40;47.60
57857;DHT22;43683;48.650;9.290;2023-08-31T13:39:58;24.00;47.80
57857;DHT22;43683;48.650;9.290;2023-08-31T13:42:25;23.50;48.30
57857;DHT22;43683;48.650;9.290;2023-08-31T13:44:51;23.00;48.80
57857;DHT22;43683;48.650;9.290;2023-08-31T13:47:16;22.60;49.30
57857;DHT22;43683;48.650;9.290;2023-08-31T13:49:42;22.20;49.90
57857;DHT22;43683;48.650;9.290;2023-08-31T13:52:07;21.80;50.20
57857;DHT22;43683;48.650;9.290;2023-08-31T13:54:34;22.00;50.20
57857;DHT22;43683;48.650;9.290;2023-08-31T13:57:00;22.50;49.80
57857;DHT22;43683;48.650;9.290;2023-08-31T13:59:26;22.90;49.50
57857;DHT22;43683;48.650;9.290;2023-08-31T14:01:54;23.30;49.20
57857;DHT22;43683;48.650;9.290;2023-08-31T14:04:20;23.40;48.70
57857;DHT22;43683;48.650;9.290;2023-08-31T14:06:47;23.00;49.30
57857;DHT22;43683;48.650;9.290;2023-08-31T14:09:14;22.60;50.00
57857;DHT22;43683;48.650;9.290;2023-08-31T14:11:39;22.20;50.50
57857;DHT22;43683;48.650;9.290;2023-08-31T14:14:05;22.00;50.70
57857;DHT22;43683;48.650;9.290;2023-08-31T14:16:34;21.90;50.60
57857;DHT22;43683;48.650;9.290;2023-08-31T14:19:02;21.70;50.60
57857;DHT22;43683;48.650;9.290;2023-08-31T14:21:27;21.60;50.50
57857;DHT22;43683;48.650;9.290;2023-08-31T14:23:53;21.40;50.50
57857;DHT22;43683;48.650;9.290;2023-08-31T14:26:21;21.10;50.70
57857;DHT22;43683;48.650;9.290;2023-08-31T14:28:48;20.90;51.10
57857;DHT22;43683;48.650;9.290;2023-08-31T14:31:13;20.70;51.40
57857;DHT22;43683;48.650;9.290;2023-08-31T14:33:38;20.60;51.80
57857;DHT22;43683;48.650;9.290;2023-08-31T14:36:04;20.50;52.00
57857;DHT22;43683;48.650;9.290;2023-08-31T14:38:30;20.40;51.90
57857;DHT22;43683;48.650;9.290;2023-08-31T14:40:55;20.50;52.10
57857;DHT22;43683;48.650;9.290;2023-08-31T14:43:21;20.60;52.00
57857;DHT22;43683;48.650;9.290;2023-08-31T14:45:47;20.90;51.90
57857;DHT22;43683;48.650;9.290;2023-08-31T14:48:13;21.10;51.30
57857;DHT22;43683;48.650;9.290;2023-08-31T14:50:43;21.20;51.20
57857;DHT22;43683;48.650;9.290;2023-08-31T14:53:10;21.20;51.20
57857;DHT22;43683;48.650;9.290;2023-08-31T14:55:36;21.70;51.30
57857;DHT22;43683;48.650;9.290;2023-08-31T14:58:01;22.50;50.50
57857;DHT22;43683;48.650;9.290;2023-08-31T15:00:27;22.60;50.20
57857;DHT22;43683;48.650;9.290;2023-08-31T15:02:52;22.50;50.50
57857;DHT22;43683;48.650;9.290;2023-08-31T15:05:18;22.70;50.70
57857;DHT22;43683;48.650;9.290;2023-08-31T15:07:43;22.80;50.70
57857;DHT22;43683;48.650;9.290;2023-08-31T15:10:09;23.00;51.60
57857;DHT22;43683;48.650;9.290;2023-08-31T15:12:35;22.70;50.70
57857;DHT22;43683;48.650;9.290;2023-08-31T15:15:01;22.50;51.00
57857;DHT22;43683;48.650;9.290;2023-08-31T15:17:28;22.80;51.20
57857;DHT22;43683;48.650;9.290;2023-08-31T15:19:53;22.80;50.90
57857;DHT22;43683;48.650;9.290;2023-08-31T15:22:19;22.50;50.90
57857;DHT22;43683;48.650;9.290;2023-08-31T15:24:46;22.10;51.20
57857;DHT22;43683;48.650;9.290;2023-08-31T15:27:11;21.80;51.50
57857;DHT22;43683;48.650;9.290;2023-08-31T15:29:37;21.40;52.20
57857;DHT22;43683;48.650;9.290;2023-08-31T15:32:03;21.30;52.40
57857;DHT22;43683;48.650;9.290;2023-08-31T15:34:28;21.10;52.50
57857;DHT22;43683;48.650;9.290;2023-08-31T15:36:54;20.90;52.60